sensor_id;sensor_type;location;lat;lon;timestamp;pressure;altitude;pressure_sealevel;temperature;humidity
62055;BME280;48653;51.742;-1.256;2023-04-02T00:01:48;101254.21;;;7.07;59.50
62055;BME280;48653;51.742;-1.256;2023-04-02T00:04:18;101257.77;;;7.76;58.17
62055;BME280;48653;51.742;-1.256;2023-04-02T00:06:39;101256.68;;;7.23;59.58
62055;BME280;48653;51.742;-1.256;2023-04-02T00:09:16;101259.50;;;7.45;58.88
62055;BME280;48653;51.742;-1.256;2023-04-02T00:11:31;101261.97;;;7.43;58.49
62055;BME280;48653;51.742;-1.256;2023-04-02T00:13:54;101265.61;;;7.88;58.80
62055;BME280;48653;51.742;-1.256;2023-04-02T00:16:22;101270.96;;;8.00;56.87
62055;BME280;48653;51.742;-1.256;2023-04-02T00:18:49;101275.46;;;8.35;55.94
62055;BME280;48653;51.742;-1.256;2023-04-02T00:21:15;101280.02;;;7.08;59.11
62055;BME280;48653;51.742;-1.256;2023-04-02T00:23:36;101280.01;;;7.59;58.26
62055;BME280;48653;51.742;-1.256;2023-04-02T00:26:01;101283.68;;;7.97;57.22
62055;BME280;48653;51.742;-1.256;2023-04-02T00:28:26;101294.01;;;8.38;56.58
62055;BME280;48653;51.742;-1.256;2023-04-02T00:30:52;101299.53;;;7.42;58.10
62055;BME280;48653;51.742;-1.256;2023-04-02T00:33:19;101303.84;;;6.06;61.54
62055;BME280;48653;51.742;-1.256;2023-04-02T00:35:42;101301.27;;;6.58;60.25
62055;BME280;48653;51.742;-1.256;2023-04-02T00:38:16;101304.17;;;7.45;58.20
62055;BME280;48653;51.742;-1.256;2023-04-02T00:40:31;101305.97;;;8.51;55.73
62055;BME280;48653;51.742;-1.256;2023-04-02T00:42:58;101308.16;;;8.53;55.47
62055;BME280;48653;51.742;-1.256;2023-04-02T00:45:24;101310.75;;;7.49;57.12
62055;BME280;48653;51.742;-1.256;2023-04-02T00:47:47;101309.59;;;7.72;56.49
62055;BME280;48653;51.742;-1.256;2023-04-02T00:50:21;101314.55;;;7.26;58.32
62055;BME280;48653;51.742;-1.256;2023-04-02T00:52:37;101322.18;;;7.21;57.99
62055;BME280;48653;51.742;-1.256;2023-04-02T00:55:07;101329.75;;;7.19;57.46
62055;BME280;48653;51.742;-1.256;2023-04-02T00:57:27;101332.01;;;7.67;56.50
62055;BME280;48653;51.742;-1.256;2023-04-02T00:59:56;101335.02;;;7.25;56.90
62055;BME280;48653;51.742;-1.256;2023-04-02T01:02:22;101339.71;;;7.18;57.53
62055;BME280;48653;51.742;-1.256;2023-04-02T01:04:50;101341.47;;;7.15;57.95
62055;BME280;48653;51.742;-1.256;2023-04-02T01:07:10;101344.59;;;7.23;56.48
62055;BME280;48653;51.742;-1.256;2023-04-02T01:09:45;101354.60;;;6.99;57.40
62055;BME280;48653;51.742;-1.256;2023-04-02T01:12:11;101356.85;;;7.69;55.87
62055;BME280;48653;51.742;-1.256;2023-04-02T01:14:34;101354.71;;;8.11;54.46
62055;BME280;48653;51.742;-1.256;2023-04-02T01:16:51;101362.74;;;6.56;57.49
62055;BME280;48653;51.742;-1.256;2023-04-02T01:21:49;101367.64;;;6.02;60.61
62055;BME280;48653;51.742;-1.256;2023-04-02T01:24:06;101361.01;;;6.59;58.16
62055;BME280;48653;51.742;-1.256;2023-04-02T01:26:44;101364.59;;;7.38;56.35
62055;BME280;48653;51.742;-1.256;2023-04-02T01:29:00;101366.65;;;6.30;59.02
62055;BME280;48653;51.742;-1.256;2023-04-02T01:31:20;101370.11;;;6.86;58.40
62055;BME280;48653;51.742;-1.256;2023-04-02T01:33:47;101368.74;;;6.73;59.30
62055;BME280;48653;51.742;-1.256;2023-04-02T01:36:17;101367.85;;;7.43;56.27
62055;BME280;48653;51.742;-1.256;2023-04-02T01:38:39;101368.50;;;7.53;55.91
62055;BME280;48653;51.742;-1.256;2023-04-02T01:41:07;101374.46;;;7.07;58.06
62055;BME280;48653;51.742;-1.256;2023-04-02T01:43:31;101371.87;;;8.10;54.65
62055;BME280;48653;51.742;-1.256;2023-04-02T01:45:52;101377.69;;;6.85;56.95
62055;BME280;48653;51.742;-1.256;2023-04-02T01:48:18;101382.11;;;7.07;58.05
62055;BME280;48653;51.742;-1.256;2023-04-02T01:53:10;101389.18;;;7.50;57.12
62055;BME280;48653;51.742;-1.256;2023-04-02T01:55:39;101390.16;;;7.03;58.05
62055;BME280;48653;51.742;-1.256;2023-04-02T01:57:59;101387.21;;;6.74;58.76
62055;BME280;48653;51.742;-1.256;2023-04-02T02:00:23;101388.92;;;6.56;59.17
62055;BME280;48653;51.742;-1.256;2023-04-02T02:02:49;101393.33;;;7.38;57.06
62055;BME280;48653;51.742;-1.256;2023-04-02T02:05:14;101391.85;;;7.79;55.40
62055;BME280;48653;51.742;-1.256;2023-04-02T02:07:38;101395.98;;;7.87;55.17
62055;BME280;48653;51.742;-1.256;2023-04-02T02:10:03;101405.48;;;7.31;56.04
62055;BME280;48653;51.742;-1.256;2023-04-02T02:12:28;101408.84;;;7.08;56.84
62055;BME280;48653;51.742;-1.256;2023-04-02T02:14:53;101412.36;;;7.11;57.06
62055;BME280;48653;51.742;-1.256;2023-04-02T02:17:22;101414.72;;;7.45;56.14
62055;BME280;48653;51.742;-1.256;2023-04-02T02:19:46;101414.74;;;6.87;58.03
62055;BME280;48653;51.742;-1.256;2023-04-02T02:22:16;101421.79;;;6.49;59.87
62055;BME280;48653;51.742;-1.256;2023-04-02T02:24:35;101421.12;;;7.01;59.51
62055;BME280;48653;51.742;-1.256;2023-04-02T02:27:08;101427.94;;;7.34;56.76
62055;BME280;48653;51.742;-1.256;2023-04-02T02:29:26;101428.50;;;7.51;56.68
62055;BME280;48653;51.742;-1.256;2023-04-02T02:31:52;101431.14;;;8.19;54.97
62055;BME280;48653;51.742;-1.256;2023-04-02T02:34:19;101433.00;;;7.68;56.00
62055;BME280;48653;51.742;-1.256;2023-04-02T02:36:46;101432.16;;;7.77;55.86
62055;BME280;48653;51.742;-1.256;2023-04-02T02:39:12;101434.46;;;7.19;56.89
62055;BME280;48653;51.742;-1.256;2023-04-02T02:41:35;101439.10;;;7.80;56.08
62055;BME280;48653;51.742;-1.256;2023-04-02T02:43:59;101443.20;;;7.13;57.87
62055;BME280;48653;51.742;-1.256;2023-04-02T02:46:22;101447.12;;;7.06;57.59
62055;BME280;48653;51.742;-1.256;2023-04-02T02:48:46;101448.83;;;7.06;57.38
62055;BME280;48653;51.742;-1.256;2023-04-02T02:51:17;101450.25;;;7.37;56.44
62055;BME280;48653;51.742;-1.256;2023-04-02T02:53:44;101446.53;;;7.74;56.55
62055;BME280;48653;51.742;-1.256;2023-04-02T02:56:01;101446.53;;;6.92;57.51
62055;BME280;48653;51.742;-1.256;2023-04-02T02:58:28;101449.67;;;6.69;59.20
62055;BME280;48653;51.742;-1.256;2023-04-02T03:00:51;101451.05;;;6.22;59.33
62055;BME280;48653;51.742;-1.256;2023-04-02T03:03:18;101452.65;;;6.83;59.01
62055;BME280;48653;51.742;-1.256;2023-04-02T03:05:41;101455.42;;;7.16;58.45
62055;BME280;48653;51.742;-1.256;2023-04-02T03:08:12;101461.61;;;6.67;59.15
62055;BME280;48653;51.742;-1.256;2023-04-02T03:10:36;101464.26;;;6.98;58.94
62055;BME280;48653;51.742;-1.256;2023-04-02T03:13:04;101468.41;;;7.19;57.62
62055;BME280;48653;51.742;-1.256;2023-04-02T03:15:26;101473.69;;;7.08;57.33
62055;BME280;48653;51.742;-1.256;2023-04-02T03:17:52;101477.26;;;7.36;57.11
62055;BME280;48653;51.742;-1.256;2023-04-02T03:20:15;101475.57;;;7.35;57.36
62055;BME280;48653;51.742;-1.256;2023-04-02T03:22:41;101475.38;;;7.63;57.20
62055;BME280;48653;51.742;-1.256;2023-04-02T03:25:08;101479.38;;;7.33;56.54
62055;BME280;48653;51.742;-1.256;2023-04-02T03:27:31;101491.39;;;6.89;58.84
62055;BME280;48653;51.742;-1.256;2023-04-02T03:30:01;101497.29;;;6.69;58.69
62055;BME280;48653;51.742;-1.256;2023-04-02T03:32:21;101501.55;;;7.35;57.40
62055;BME280;48653;51.742;-1.256;2023-04-02T03:34:45;101500.72;;;7.29;56.68
62055;BME280;48653;51.742;-1.256;2023-04-02T03:37:13;101505.54;;;6.81;57.63
62055;BME280;48653;51.742;-1.256;2023-04-02T03:39:36;101508.88;;;6.58;57.51
62055;BME280;48653;51.742;-1.256;2023-04-02T03:42:02;101515.12;;;6.61;58.18
62055;BME280;48653;51.742;-1.256;2023-04-02T03:44:27;101518.15;;;5.90;60.03
62055;BME280;48653;51.742;-1.256;2023-04-02T03:46:52;101524.69;;;5.82;60.54
62055;BME280;48653;51.742;-1.256;2023-04-02T03:49:18;101523.51;;;6.63;58.92
62055;BME280;48653;51.742;-1.256;2023-04-02T03:51:45;101527.17;;;6.29;59.28
62055;BME280;48653;51.742;-1.256;2023-04-02T03:54:06;101531.90;;;7.37;57.16
62055;BME280;48653;51.742;-1.256;2023-04-02T03:56:31;101536.45;;;6.64;58.50
62055;BME280;48653;51.742;-1.256;2023-04-02T03:59:03;101542.10;;;6.91;58.34
62055;BME280;48653;51.742;-1.256;2023-04-02T04:01:25;101544.57;;;6.82;58.29
62055;BME280;48653;51.742;-1.256;2023-04-02T04:03:48;101545.26;;;6.49;59.75
62055;BME280;48653;51.742;-1.256;2023-04-02T04:06:14;101544.57;;;6.23;59.20
62055;BME280;48653;51.742;-1.256;2023-04-02T04:08:43;101549.33;;;6.98;58.13
62055;BME280;48653;51.742;-1.256;2023-04-02T04:11:07;101554.82;;;7.51;56.83
62055;BME280;48653;51.742;-1.256;2023-04-02T04:13:34;101557.30;;;6.95;57.89
62055;BME280;48653;51.742;-1.256;2023-04-02T04:15:57;101552.26;;;8.17;55.58
62055;BME280;48653;51.742;-1.256;2023-04-02T04:18:25;101549.95;;;7.89;55.57
62055;BME280;48653;51.742;-1.256;2023-04-02T04:20:48;101553.42;;;7.41;56.01
62055;BME280;48653;51.742;-1.256;2023-04-02T04:23:13;101559.28;;;7.09;56.91
62055;BME280;48653;51.742;-1.256;2023-04-02T04:25:34;101564.24;;;6.67;57.93
62055;BME280;48653;51.742;-1.256;2023-04-02T04:28:05;101572.66;;;6.61;59.25
62055;BME280;48653;51.742;-1.256;2023-04-02T04:30:29;101571.24;;;5.98;60.55
62055;BME280;48653;51.742;-1.256;2023-04-02T04:32:54;101574.54;;;5.72;61.67
62055;BME280;48653;51.742;-1.256;2023-04-02T04:35:19;101578.10;;;6.91;58.54
62055;BME280;48653;51.742;-1.256;2023-04-02T04:37:42;101577.61;;;6.53;58.68
62055;BME280;48653;51.742;-1.256;2023-04-02T04:40:13;101574.31;;;6.71;58.95
62055;BME280;48653;51.742;-1.256;2023-04-02T04:42:32;101580.81;;;7.21;57.79
62055;BME280;48653;51.742;-1.256;2023-04-02T04:45:01;101580.75;;;6.64;58.71
62055;BME280;48653;51.742;-1.256;2023-04-02T04:47:27;101587.58;;;6.35;59.30
62055;BME280;48653;51.742;-1.256;2023-04-02T04:49:52;101595.00;;;6.37;60.01
62055;BME280;48653;51.742;-1.256;2023-04-02T04:52:16;101590.61;;;6.75;59.02
62055;BME280;48653;51.742;-1.256;2023-04-02T04:54:38;101594.56;;;6.38;59.77
62055;BME280;48653;51.742;-1.256;2023-04-02T04:57:03;101600.39;;;6.06;59.90
62055;BME280;48653;51.742;-1.256;2023-04-02T04:59:32;101605.31;;;6.76;58.45
62055;BME280;48653;51.742;-1.256;2023-04-02T05:01:59;101609.14;;;7.36;57.45
62055;BME280;48653;51.742;-1.256;2023-04-02T05:04:22;101613.18;;;6.47;58.39
62055;BME280;48653;51.742;-1.256;2023-04-02T05:06:50;101612.73;;;5.99;59.69
62055;BME280;48653;51.742;-1.256;2023-04-02T05:09:16;101618.17;;;6.53;59.11
62055;BME280;48653;51.742;-1.256;2023-04-02T05:11:40;101624.12;;;6.17;60.11
62055;BME280;48653;51.742;-1.256;2023-04-02T05:14:03;101628.74;;;6.80;58.61
62055;BME280;48653;51.742;-1.256;2023-04-02T05:16:30;101632.90;;;6.57;59.22
62055;BME280;48653;51.742;-1.256;2023-04-02T05:18:55;101635.38;;;6.69;58.94
62055;BME280;48653;51.742;-1.256;2023-04-02T05:21:19;101642.61;;;6.49;58.38
62055;BME280;48653;51.742;-1.256;2023-04-02T05:23:45;101642.76;;;6.92;58.29
62055;BME280;48653;51.742;-1.256;2023-04-02T05:26:12;101647.74;;;7.80;56.42
62055;BME280;48653;51.742;-1.256;2023-04-02T05:28:37;101650.98;;;6.67;57.30
62055;BME280;48653;51.742;-1.256;2023-04-02T05:31:01;101665.58;;;8.05;55.78
62055;BME280;48653;51.742;-1.256;2023-04-02T05:33:25;101670.68;;;6.78;57.71
62055;BME280;48653;51.742;-1.256;2023-04-02T05:35:55;101668.82;;;7.40;56.85
62055;BME280;48653;51.742;-1.256;2023-04-02T05:38:19;101672.74;;;7.04;56.88
62055;BME280;48653;51.742;-1.256;2023-04-02T05:40:42;101676.55;;;7.83;55.85
62055;BME280;48653;51.742;-1.256;2023-04-02T05:43:08;101683.02;;;7.98;54.95
62055;BME280;48653;51.742;-1.256;2023-04-02T05:45:32;101690.47;;;7.72;55.39
62055;BME280;48653;51.742;-1.256;2023-04-02T05:47:57;101696.66;;;7.61;55.44
62055;BME280;48653;51.742;-1.256;2023-04-02T05:50:26;101697.98;;;7.46;56.51
62055;BME280;48653;51.742;-1.256;2023-04-02T05:52:48;101706.39;;;7.29;57.17
62055;BME280;48653;51.742;-1.256;2023-04-02T05:55:25;101707.59;;;6.91;59.21
62055;BME280;48653;51.742;-1.256;2023-04-02T05:57:39;101712.48;;;7.23;57.90
62055;BME280;48653;51.742;-1.256;2023-04-02T06:00:06;101717.92;;;6.99;58.64
62055;BME280;48653;51.742;-1.256;2023-04-02T06:02:30;101719.37;;;7.23;58.40
62055;BME280;48653;51.742;-1.256;2023-04-02T06:04:56;101723.24;;;7.09;58.99
62055;BME280;48653;51.742;-1.256;2023-04-02T06:07:21;101723.51;;;7.40;58.67
62055;BME280;48653;51.742;-1.256;2023-04-02T06:09:47;101724.31;;;7.20;58.84
62055;BME280;48653;51.742;-1.256;2023-04-02T06:12:18;101727.03;;;6.81;59.65
62055;BME280;48653;51.742;-1.256;2023-04-02T06:14:34;101733.45;;;6.85;58.31
62055;BME280;48653;51.742;-1.256;2023-04-02T06:16:59;101737.14;;;7.05;58.98
62055;BME280;48653;51.742;-1.256;2023-04-02T06:19:30;101741.31;;;7.19;58.13
62055;BME280;48653;51.742;-1.256;2023-04-02T06:21:51;101742.37;;;7.26;57.72
62055;BME280;48653;51.742;-1.256;2023-04-02T06:24:19;101743.74;;;7.19;58.27
62055;BME280;48653;51.742;-1.256;2023-04-02T06:26:44;101741.38;;;7.07;58.67
62055;BME280;48653;51.742;-1.256;2023-04-02T06:29:11;101743.07;;;7.51;57.55
62055;BME280;48653;51.742;-1.256;2023-04-02T06:31:37;101745.16;;;6.92;58.14
62055;BME280;48653;51.742;-1.256;2023-04-02T06:33:57;101746.56;;;6.77;58.89
62055;BME280;48653;51.742;-1.256;2023-04-02T06:36:23;101750.94;;;7.10;57.31
62055;BME280;48653;51.742;-1.256;2023-04-02T06:38:48;101755.19;;;7.03;57.73
62055;BME280;48653;51.742;-1.256;2023-04-02T06:41:18;101764.46;;;7.26;57.09
62055;BME280;48653;51.742;-1.256;2023-04-02T06:43:43;101770.88;;;7.48;56.56
62055;BME280;48653;51.742;-1.256;2023-04-02T06:46:08;101776.50;;;6.64;57.93
62055;BME280;48653;51.742;-1.256;2023-04-02T06:48:30;101780.20;;;6.69;58.20
62055;BME280;48653;51.742;-1.256;2023-04-02T06:50:58;101785.51;;;7.14;56.77
62055;BME280;48653;51.742;-1.256;2023-04-02T06:53:24;101791.55;;;7.24;56.31
62055;BME280;48653;51.742;-1.256;2023-04-02T06:55:47;101792.50;;;7.25;56.77
62055;BME280;48653;51.742;-1.256;2023-04-02T06:58:10;101795.23;;;6.54;57.60
62055;BME280;48653;51.742;-1.256;2023-04-02T07:00:37;101800.31;;;6.41;57.67
62055;BME280;48653;51.742;-1.256;2023-04-02T07:03:02;101803.49;;;6.29;58.31
62055;BME280;48653;51.742;-1.256;2023-04-02T07:05:26;101808.99;;;6.37;57.78
62055;BME280;48653;51.742;-1.256;2023-04-02T07:07:51;101809.14;;;6.65;57.40
62055;BME280;48653;51.742;-1.256;2023-04-02T07:10:16;101817.85;;;5.81;58.58
62055;BME280;48653;51.742;-1.256;2023-04-02T07:12:41;101815.41;;;6.02;58.92
62055;BME280;48653;51.742;-1.256;2023-04-02T07:15:08;101818.19;;;6.79;57.31
62055;BME280;48653;51.742;-1.256;2023-04-02T07:17:32;101828.16;;;7.36;55.74
62055;BME280;48653;51.742;-1.256;2023-04-02T07:19:57;101832.61;;;6.52;58.30
62055;BME280;48653;51.742;-1.256;2023-04-02T07:22:22;101835.19;;;6.78;56.81
62055;BME280;48653;51.742;-1.256;2023-04-02T07:24:47;101837.89;;;6.62;56.81
62055;BME280;48653;51.742;-1.256;2023-04-02T07:27:14;101845.83;;;6.46;56.75
62055;BME280;48653;51.742;-1.256;2023-04-02T07:29:38;101855.16;;;6.43;56.95
62055;BME280;48653;51.742;-1.256;2023-04-02T07:32:03;101862.59;;;6.10;57.40
62055;BME280;48653;51.742;-1.256;2023-04-02T07:34:28;101867.12;;;5.89;57.79
62055;BME280;48653;51.742;-1.256;2023-04-02T07:36:54;101871.33;;;6.52;55.94
62055;BME280;48653;51.742;-1.256;2023-04-02T07:39:19;101876.22;;;6.38;56.33
62055;BME280;48653;51.742;-1.256;2023-04-02T07:41:52;101879.97;;;6.71;55.93
62055;BME280;48653;51.742;-1.256;2023-04-02T07:44:10;101887.35;;;6.80;55.34
62055;BME280;48653;51.742;-1.256;2023-04-02T07:46:35;101891.03;;;6.99;54.41
62055;BME280;48653;51.742;-1.256;2023-04-02T07:49:00;101897.04;;;6.93;54.52
62055;BME280;48653;51.742;-1.256;2023-04-02T07:51:25;101895.70;;;6.47;54.38
62055;BME280;48653;51.742;-1.256;2023-04-02T07:53:51;101900.68;;;6.58;54.28
62055;BME280;48653;51.742;-1.256;2023-04-02T07:56:17;101901.47;;;6.85;54.17
62055;BME280;48653;51.742;-1.256;2023-04-02T07:58:41;101902.81;;;6.81;53.65
62055;BME280;48653;51.742;-1.256;2023-04-02T08:01:14;101905.17;;;6.85;53.07
62055;BME280;48653;51.742;-1.256;2023-04-02T08:03:31;101905.10;;;6.47;53.63
62055;BME280;48653;51.742;-1.256;2023-04-02T08:05:57;101909.71;;;7.03;52.90
62055;BME280;48653;51.742;-1.256;2023-04-02T08:08:23;101911.56;;;7.09;52.27
62055;BME280;48653;51.742;-1.256;2023-04-02T08:10:48;101918.71;;;7.10;52.28
62055;BME280;48653;51.742;-1.256;2023-04-02T08:13:13;101923.70;;;7.19;50.99
62055;BME280;48653;51.742;-1.256;2023-04-02T08:15:38;101927.93;;;6.62;51.93
62055;BME280;48653;51.742;-1.256;2023-04-02T08:18:03;101930.37;;;6.96;51.17
62055;BME280;48653;51.742;-1.256;2023-04-02T08:20:28;101927.18;;;6.91;51.50
62055;BME280;48653;51.742;-1.256;2023-04-02T08:22:53;101927.07;;;6.98;51.69
62055;BME280;48653;51.742;-1.256;2023-04-02T08:25:19;101924.72;;;6.98;51.20
62055;BME280;48653;51.742;-1.256;2023-04-02T08:27:46;101929.43;;;6.96;50.90
62055;BME280;48653;51.742;-1.256;2023-04-02T08:30:11;101926.69;;;6.79;50.84
62055;BME280;48653;51.742;-1.256;2023-04-02T08:32:34;101931.80;;;7.01;51.64
62055;BME280;48653;51.742;-1.256;2023-04-02T08:34:59;101933.80;;;6.77;50.14
62055;BME280;48653;51.742;-1.256;2023-04-02T08:37:24;101940.95;;;6.62;50.55
62055;BME280;48653;51.742;-1.256;2023-04-02T08:39:49;101952.06;;;7.35;49.79
62055;BME280;48653;51.742;-1.256;2023-04-02T08:42:21;101957.62;;;7.55;49.82
62055;BME280;48653;51.742;-1.256;2023-04-02T08:44:44;101957.58;;;7.23;48.99
62055;BME280;48653;51.742;-1.256;2023-04-02T08:47:06;101962.60;;;6.92;49.72
62055;BME280;48653;51.742;-1.256;2023-04-02T08:49:33;101962.65;;;7.02;49.13
62055;BME280;48653;51.742;-1.256;2023-04-02T08:51:55;101964.83;;;7.35;48.83
62055;BME280;48653;51.742;-1.256;2023-04-02T08:54:24;101973.66;;;7.64;48.18
62055;BME280;48653;51.742;-1.256;2023-04-02T08:56:51;101978.94;;;6.85;48.93
62055;BME280;48653;51.742;-1.256;2023-04-02T08:59:20;101988.02;;;6.67;50.27
62055;BME280;48653;51.742;-1.256;2023-04-02T09:01:43;101995.94;;;6.71;49.23
62055;BME280;48653;51.742;-1.256;2023-04-02T09:04:05;102000.56;;;6.76;50.00
62055;BME280;48653;51.742;-1.256;2023-04-02T09:06:27;102001.24;;;7.06;49.66
62055;BME280;48653;51.742;-1.256;2023-04-02T09:08:53;102003.67;;;7.33;48.60
62055;BME280;48653;51.742;-1.256;2023-04-02T09:11:22;102008.81;;;6.51;49.00
62055;BME280;48653;51.742;-1.256;2023-04-02T09:16:10;102000.20;;;7.03;48.23
62055;BME280;48653;51.742;-1.256;2023-04-02T09:18:33;101998.62;;;7.46;48.37
62055;BME280;48653;51.742;-1.256;2023-04-02T09:20:59;102003.26;;;7.26;48.75
62055;BME280;48653;51.742;-1.256;2023-04-02T09:23:24;102008.96;;;7.14;48.06
62055;BME280;48653;51.742;-1.256;2023-04-02T09:25:50;102010.70;;;7.54;47.93
62055;BME280;48653;51.742;-1.256;2023-04-02T09:28:14;102010.86;;;7.82;46.05
62055;BME280;48653;51.742;-1.256;2023-04-02T09:33:05;102016.80;;;8.79;45.51
62055;BME280;48653;51.742;-1.256;2023-04-02T09:35:32;102019.39;;;8.56;45.43
62055;BME280;48653;51.742;-1.256;2023-04-02T09:38:10;102018.44;;;7.46;47.28
62055;BME280;48653;51.742;-1.256;2023-04-02T09:40:24;102017.73;;;7.99;46.43
62055;BME280;48653;51.742;-1.256;2023-04-02T09:42:47;102021.01;;;8.40;46.42
62055;BME280;48653;51.742;-1.256;2023-04-02T09:45:17;102029.08;;;8.35;46.25
62055;BME280;48653;51.742;-1.256;2023-04-02T09:47:38;102031.37;;;8.43;46.35
62055;BME280;48653;51.742;-1.256;2023-04-02T09:50:13;102037.31;;;8.31;46.23
62055;BME280;48653;51.742;-1.256;2023-04-02T09:52:28;102043.31;;;8.28;45.77
62055;BME280;48653;51.742;-1.256;2023-04-02T09:57:20;102045.93;;;8.09;45.56
62055;BME280;48653;51.742;-1.256;2023-04-02T09:59:44;102045.38;;;8.04;45.27
62055;BME280;48653;51.742;-1.256;2023-04-02T10:04:36;102051.12;;;8.15;45.13
62055;BME280;48653;51.742;-1.256;2023-04-02T10:06:59;102052.13;;;9.09;44.08
62055;BME280;48653;51.742;-1.256;2023-04-02T10:09:29;102058.28;;;8.79;44.19
62055;BME280;48653;51.742;-1.256;2023-04-02T10:11:50;102054.95;;;8.47;44.45
62055;BME280;48653;51.742;-1.256;2023-04-02T10:14:18;102057.96;;;9.10;44.04
62055;BME280;48653;51.742;-1.256;2023-04-02T10:16:44;102057.84;;;8.46;43.79
62055;BME280;48653;51.742;-1.256;2023-04-02T10:19:13;102064.93;;;8.82;43.36
62055;BME280;48653;51.742;-1.256;2023-04-02T10:21:34;102063.65;;;8.49;44.54
62055;BME280;48653;51.742;-1.256;2023-04-02T10:23:57;102064.80;;;9.00;42.82
62055;BME280;48653;51.742;-1.256;2023-04-02T10:26:30;102068.16;;;9.06;43.41
62055;BME280;48653;51.742;-1.256;2023-04-02T10:29:02;102070.55;;;9.32;42.99
62055;BME280;48653;51.742;-1.256;2023-04-02T10:31:16;102075.80;;;9.19;41.97
62055;BME280;48653;51.742;-1.256;2023-04-02T10:33:39;102081.46;;;8.91;42.38
62055;BME280;48653;51.742;-1.256;2023-04-02T10:36:08;102090.70;;;8.24;43.15
62055;BME280;48653;51.742;-1.256;2023-04-02T10:38:34;102090.79;;;8.28;43.87
62055;BME280;48653;51.742;-1.256;2023-04-02T10:40:58;102091.11;;;8.94;43.02
62055;BME280;48653;51.742;-1.256;2023-04-02T10:45:48;102092.19;;;8.93;42.36
62055;BME280;48653;51.742;-1.256;2023-04-02T10:48:15;102097.34;;;9.31;42.45
62055;BME280;48653;51.742;-1.256;2023-04-02T10:50:38;102101.55;;;9.59;41.44
62055;BME280;48653;51.742;-1.256;2023-04-02T10:53:07;102101.82;;;9.71;42.21
62055;BME280;48653;51.742;-1.256;2023-04-02T10:55:30;102099.52;;;9.79;41.98
62055;BME280;48653;51.742;-1.256;2023-04-02T10:57:52;102102.08;;;9.96;41.41
62055;BME280;48653;51.742;-1.256;2023-04-02T11:00:22;102102.72;;;10.33;41.61
62055;BME280;48653;51.742;-1.256;2023-04-02T11:02:45;102098.35;;;10.63;41.17
62055;BME280;48653;51.742;-1.256;2023-04-02T11:05:14;102102.40;;;10.67;40.50
62055;BME280;48653;51.742;-1.256;2023-04-02T11:07:38;102104.06;;;10.83;39.76
62055;BME280;48653;51.742;-1.256;2023-04-02T11:09:57;102106.46;;;10.95;40.33
62055;BME280;48653;51.742;-1.256;2023-04-02T11:12:24;102113.38;;;11.12;40.80
62055;BME280;48653;51.742;-1.256;2023-04-02T11:14:47;102114.07;;;11.19;40.37
62055;BME280;48653;51.742;-1.256;2023-04-02T11:17:13;102117.80;;;10.46;40.32
62055;BME280;48653;51.742;-1.256;2023-04-02T11:19:37;102114.52;;;11.14;40.30
62055;BME280;48653;51.742;-1.256;2023-04-02T11:22:05;102109.18;;;11.40;39.94
62055;BME280;48653;51.742;-1.256;2023-04-02T11:24:35;102102.12;;;10.97;40.41
62055;BME280;48653;51.742;-1.256;2023-04-02T11:26:53;102109.81;;;10.83;39.69
62055;BME280;48653;51.742;-1.256;2023-04-02T11:29:21;102109.91;;;11.66;39.84
62055;BME280;48653;51.742;-1.256;2023-04-02T11:31:43;102120.35;;;9.74;40.39
62055;BME280;48653;51.742;-1.256;2023-04-02T11:34:13;102121.58;;;10.11;40.49
62055;BME280;48653;51.742;-1.256;2023-04-02T11:38:58;102115.71;;;10.63;40.47
62055;BME280;48653;51.742;-1.256;2023-04-02T11:43:50;102119.59;;;10.65;39.62
62055;BME280;48653;51.742;-1.256;2023-04-02T11:46:31;102118.41;;;11.23;39.55
62055;BME280;48653;51.742;-1.256;2023-04-02T11:48:39;102124.93;;;11.46;37.39
62055;BME280;48653;51.742;-1.256;2023-04-02T11:51:13;102128.18;;;11.36;38.92
62055;BME280;48653;51.742;-1.256;2023-04-02T11:53:32;102126.89;;;11.69;37.95
62055;BME280;48653;51.742;-1.256;2023-04-02T11:56:08;102134.18;;;11.58;38.88
62055;BME280;48653;51.742;-1.256;2023-04-02T11:58:32;102138.07;;;10.61;39.16
62055;BME280;48653;51.742;-1.256;2023-04-02T12:01:08;102138.83;;;10.60;38.75
62055;BME280;48653;51.742;-1.256;2023-04-02T12:03:24;102133.19;;;11.21;39.09
62055;BME280;48653;51.742;-1.256;2023-04-02T12:05:39;102139.87;;;11.71;37.71
62055;BME280;48653;51.742;-1.256;2023-04-02T12:08:13;102140.27;;;12.62;37.01
62055;BME280;48653;51.742;-1.256;2023-04-02T12:10:29;102140.45;;;11.90;36.83
62055;BME280;48653;51.742;-1.256;2023-04-02T12:12:51;102152.28;;;10.59;39.08
62055;BME280;48653;51.742;-1.256;2023-04-02T12:15:31;102151.24;;;11.83;38.05
62055;BME280;48653;51.742;-1.256;2023-04-02T12:17:41;102153.01;;;10.55;39.18
62055;BME280;48653;51.742;-1.256;2023-04-02T12:22:32;102149.98;;;12.05;38.87
62055;BME280;48653;51.742;-1.256;2023-04-02T12:24:59;102146.35;;;12.50;37.63
62055;BME280;48653;51.742;-1.256;2023-04-02T12:27:25;102151.70;;;12.71;37.05
62055;BME280;48653;51.742;-1.256;2023-04-02T12:29:47;102154.34;;;11.88;35.73
62055;BME280;48653;51.742;-1.256;2023-04-02T12:32:19;102156.37;;;12.02;36.49
62055;BME280;48653;51.742;-1.256;2023-04-02T12:34:43;102159.75;;;10.71;38.19
62055;BME280;48653;51.742;-1.256;2023-04-02T12:37:03;102158.47;;;12.01;36.88
62055;BME280;48653;51.742;-1.256;2023-04-02T12:39:28;102161.62;;;12.08;35.94
62055;BME280;48653;51.742;-1.256;2023-04-02T12:41:53;102158.81;;;12.34;36.05
62055;BME280;48653;51.742;-1.256;2023-04-02T12:44:22;102152.38;;;13.00;36.16
62055;BME280;48653;51.742;-1.256;2023-04-02T12:46:44;102157.82;;;13.49;35.24
62055;BME280;48653;51.742;-1.256;2023-04-02T12:49:19;102158.44;;;13.76;34.12
62055;BME280;48653;51.742;-1.256;2023-04-02T12:51:35;102153.43;;;13.80;33.10
62055;BME280;48653;51.742;-1.256;2023-04-02T12:53:58;102155.96;;;13.76;34.11
62055;BME280;48653;51.742;-1.256;2023-04-02T12:56:23;102157.27;;;14.03;33.26
62055;BME280;48653;51.742;-1.256;2023-04-02T12:58:53;102157.74;;;14.17;32.44
62055;BME280;48653;51.742;-1.256;2023-04-02T13:01:16;102154.50;;;14.88;32.78